GLD1794 NWWK-NWWD

Flight info

Callsign GLD1794
Flight time 0h 19m
Altitude 5000
Route 2103S16442E DCT KQ
Aircraft BE58/L-SDFGRY/C

Departure

Time 2026-05-09 16:13
Airport Koumac Airport (NWWK)

Arrival

Time 2026-05-09 16:32
Airport Koné Airport (NWWD)
Time Latitude Longitude Altitude Speed Heading
2026-05-09 15:58 -20.54242 164.25943 33 ft 0 kts 65°
2026-05-09 16:09 -20.54242 164.25947 33 ft 2 kts 102°
2026-05-09 16:09 -20.54291 164.25975 36 ft 15 kts 158°
2026-05-09 16:09 -20.54374 164.26014 37 ft 11 kts 160°
2026-05-09 16:10 -20.54439 164.26035 37 ft 9 kts 203°
2026-05-09 16:10 -20.54476 164.25967 36 ft 14 kts 246°
2026-05-09 16:10 -20.54522 164.25850 35 ft 20 kts 248°
2026-05-09 16:10 -20.54578 164.25709 36 ft 19 kts 246°
2026-05-09 16:11 -20.54618 164.25606 34 ft 6 kts 265°
2026-05-09 16:11 -20.54623 164.25607 34 ft 7 kts 62°
2026-05-09 16:11 -20.54597 164.25686 36 ft 16 kts 66°
2026-05-09 16:11 -20.54573 164.25719 36 ft 6 kts 235°
2026-05-09 16:12 -20.54575 164.25714 36 ft 0 kts 237°
2026-05-09 16:12 -20.54589 164.25677 36 ft 32 kts 251°
2026-05-09 16:12 -20.54790 164.25171 45 ft 105 kts 245°
2026-05-09 16:13 -20.55083 164.24410 411 ft 111 kts 244°
2026-05-09 16:13 -20.55482 164.23610 677 ft 129 kts 238°
2026-05-09 16:13 -20.55894 164.22729 987 ft 141 kts 244°
2026-05-09 16:13 -20.56326 164.21739 1211 ft 156 kts 243°
2026-05-09 16:14 -20.56797 164.20685 1575 ft 150 kts 243°
2026-05-09 16:14 -20.57371 164.19899 2311 ft 126 kts 202°
2026-05-09 16:14 -20.58253 164.19958 2692 ft 138 kts 152°
2026-05-09 16:14 -20.59118 164.20475 3058 ft 146 kts 148°
2026-05-09 16:15 -20.59803 164.21287 3436 ft 151 kts 124°
2026-05-09 16:15 -20.60416 164.22214 3804 ft 155 kts 127°
2026-05-09 16:15 -20.61086 164.23125 4180 ft 157 kts 129°
2026-05-09 16:15 -20.61782 164.24034 4554 ft 159 kts 130°
2026-05-09 16:16 -20.62490 164.24950 4927 ft 161 kts 130°
2026-05-09 16:16 -20.63240 164.25915 5001 ft 176 kts 130°
2026-05-09 16:16 -20.64027 164.26933 5009 ft 184 kts 130°
2026-05-09 16:16 -20.64856 164.28002 5008 ft 189 kts 130°
2026-05-09 16:17 -20.65705 164.29099 5008 ft 193 kts 130°
2026-05-09 16:17 -20.66570 164.30216 5008 ft 196 kts 130°
2026-05-09 16:17 -20.67443 164.31343 5009 ft 198 kts 130°
2026-05-09 16:17 -20.68323 164.32480 5008 ft 199 kts 130°
2026-05-09 16:18 -20.69206 164.33621 5008 ft 200 kts 130°
2026-05-09 16:18 -20.70091 164.34766 5006 ft 200 kts 130°
2026-05-09 16:18 -20.70981 164.35915 5005 ft 201 kts 130°
2026-05-09 16:18 -20.71870 164.37066 5005 ft 201 kts 130°
2026-05-09 16:19 -20.72760 164.38217 5006 ft 201 kts 130°
2026-05-09 16:19 -20.73654 164.39372 5005 ft 202 kts 130°
2026-05-09 16:19 -20.74548 164.40529 5005 ft 202 kts 130°
2026-05-09 16:19 -20.75442 164.41686 5007 ft 202 kts 130°
2026-05-09 16:20 -20.76337 164.42845 5004 ft 203 kts 130°
2026-05-09 16:20 -20.77235 164.44007 5002 ft 202 kts 130°
2026-05-09 16:20 -20.78129 164.45166 5004 ft 202 kts 130°
2026-05-09 16:20 -20.79028 164.46330 5006 ft 203 kts 130°
2026-05-09 16:21 -20.79927 164.47495 5009 ft 203 kts 131°
2026-05-09 16:21 -20.80833 164.48667 5002 ft 205 kts 130°
2026-05-09 16:21 -20.81743 164.49847 5001 ft 206 kts 130°
2026-05-09 16:21 -20.82652 164.51025 5003 ft 206 kts 130°
2026-05-09 16:22 -20.83563 164.52204 5003 ft 205 kts 130°
2026-05-09 16:22 -20.84468 164.53380 5004 ft 205 kts 130°
2026-05-09 16:22 -20.85375 164.54557 5002 ft 205 kts 130°
2026-05-09 16:22 -20.86279 164.55730 5005 ft 205 kts 130°
2026-05-09 16:23 -20.87186 164.56906 5000 ft 205 kts 130°
2026-05-09 16:23 -20.88090 164.58078 5007 ft 205 kts 131°
2026-05-09 16:23 -20.88999 164.59258 5005 ft 206 kts 131°
2026-05-09 16:23 -20.89903 164.60435 5005 ft 204 kts 130°
2026-05-09 16:24 -20.90810 164.61612 5001 ft 205 kts 131°
2026-05-09 16:24 -20.91721 164.62794 5000 ft 206 kts 130°
2026-05-09 16:24 -20.92631 164.63975 4999 ft 205 kts 130°
2026-05-09 16:24 -20.93536 164.65153 4997 ft 205 kts 130°
2026-05-09 16:25 -20.94429 164.66313 4995 ft 204 kts 131°
2026-05-09 16:25 -20.95332 164.67487 5002 ft 205 kts 131°
2026-05-09 16:25 -20.96239 164.68664 4995 ft 205 kts 130°
2026-05-09 16:25 -20.97141 164.69841 4994 ft 204 kts 130°
2026-05-09 16:26 -20.98039 164.71010 4995 ft 204 kts 130°
2026-05-09 16:26 -20.98942 164.72182 4997 ft 203 kts 131°
2026-05-09 16:26 -20.99844 164.73355 5000 ft 205 kts 131°
2026-05-09 16:26 -21.00753 164.74538 4999 ft 206 kts 131°
2026-05-09 16:27 -21.01663 164.75724 4991 ft 206 kts 131°
2026-05-09 16:27 -21.02574 164.76909 4825 ft 200 kts 131°
2026-05-09 16:27 -21.03357 164.78054 4577 ft 185 kts 115°
2026-05-09 16:27 -21.03592 164.79368 4324 ft 176 kts 96°
2026-05-09 16:28 -21.03702 164.80648 4082 ft 170 kts 98°
2026-05-09 16:28 -21.03868 164.81883 3831 ft 166 kts 101°
2026-05-09 16:28 -21.04056 164.83096 3611 ft 164 kts 101°
2026-05-09 16:28 -21.04254 164.84313 3231 ft 167 kts 102°
2026-05-09 16:29 -21.04217 164.85570 2911 ft 169 kts 82°
2026-05-09 16:29 -21.04044 164.86742 2887 ft 151 kts 82°
2026-05-09 16:29 -21.03884 164.87789 2833 ft 138 kts 82°
2026-05-09 16:29 -21.03750 164.88830 2430 ft 142 kts 92°
2026-05-09 16:30 -21.04164 164.89776 2056 ft 147 kts 142°
2026-05-09 16:30 -21.05087 164.89999 1853 ft 131 kts 195°
2026-05-09 16:30 -21.05795 164.89434 1515 ft 129 kts 238°
2026-05-09 16:30 -21.06055 164.88596 1161 ft 120 kts 261°
2026-05-09 16:31 -21.06044 164.87723 798 ft 116 kts 277°
2026-05-09 16:31 -21.05879 164.86885 556 ft 116 kts 281°
2026-05-09 16:31 -21.05718 164.86047 350 ft 114 kts 279°
2026-05-09 16:31 -21.05578 164.85218 154 ft 111 kts 279°
2026-05-09 16:32 -21.05447 164.84431 -2 ft 102 kts 280°
2026-05-09 16:32 -21.05374 164.83977 -11 ft 79 kts 280°
2026-05-09 16:32 -21.05323 164.83687 -8 ft 11 kts 315°
2026-05-09 16:32 -21.05266 164.83678 -6 ft 7 kts
2026-05-09 16:33 -21.05229 164.83685 -5 ft 4 kts
2026-05-09 16:33 -21.05218 164.83687 -5 ft 2 kts
2026-05-09 16:33 -21.05182 164.83673 -4 ft 7 kts 288°
2026-05-09 16:33 -21.05168 164.83671 -3 ft 0 kts 92°